createdAt,value
2023-12-07T00:00:02.648Z,26.80
2023-12-07T00:02:31.472Z,18.83
2023-12-07T00:04:58.328Z,18.83
2023-12-07T00:07:25.227Z,27.00
2023-12-07T00:09:53.120Z,17.75
2023-12-07T00:12:20.230Z,20.42
2023-12-07T00:14:47.276Z,18.77
2023-12-07T00:17:14.918Z,18.92
2023-12-07T00:19:41.858Z,16.97
2023-12-07T00:22:08.890Z,16.17
2023-12-07T00:24:35.802Z,18.88
2023-12-07T00:27:02.666Z,15.18
2023-12-07T00:29:29.561Z,16.50
2023-12-07T00:31:56.401Z,20.27
2023-12-07T00:34:24.218Z,17.30
2023-12-07T00:36:51.303Z,23.02
2023-12-07T00:39:18.213Z,23.55
2023-12-07T00:41:45.132Z,20.80
2023-12-07T00:44:11.991Z,18.80
2023-12-07T00:46:38.847Z,19.42
2023-12-07T00:49:05.757Z,18.38
2023-12-07T00:51:32.817Z,17.33
2023-12-07T00:53:59.783Z,22.58
2023-12-07T00:56:26.633Z,21.90
2023-12-07T00:58:54.323Z,20.40
2023-12-07T01:01:21.242Z,16.55
2023-12-07T01:03:48.079Z,17.23
2023-12-07T01:06:15.445Z,19.55
2023-12-07T01:08:42.690Z,20.93
2023-12-07T01:11:10.144Z,20.77
2023-12-07T01:13:37.316Z,23.02
2023-12-07T01:16:04.618Z,22.48
2023-12-07T01:18:31.538Z,27.05
2023-12-07T01:20:58.481Z,20.50
2023-12-07T01:23:25.386Z,27.40
2023-12-07T01:25:52.377Z,19.83
2023-12-07T01:28:19.299Z,25.23
2023-12-07T01:30:46.244Z,25.13
2023-12-07T01:33:13.854Z,17.10
2023-12-07T01:35:40.803Z,22.35
2023-12-07T01:38:07.835Z,24.08
2023-12-07T01:40:35.730Z,24.88
2023-12-07T01:43:02.669Z,22.90
2023-12-07T01:45:29.568Z,19.23
2023-12-07T01:47:59.817Z,23.50
2023-12-07T01:50:27.580Z,25.20
2023-12-07T01:53:00.959Z,24.02
2023-12-07T01:55:29.334Z,23.77
2023-12-07T01:57:56.791Z,23.13
2023-12-07T02:00:23.806Z,24.40
2023-12-07T02:02:52.696Z,21.38
2023-12-07T02:05:19.819Z,22.05
2023-12-07T02:07:47.163Z,23.10
2023-12-07T02:10:14.699Z,20.43
2023-12-07T02:12:41.756Z,23.88
2023-12-07T02:15:09.327Z,19.00
2023-12-07T02:17:42.393Z,25.17
2023-12-07T02:20:49.846Z,24.75
2023-12-07T02:23:28.677Z,21.57
2023-12-07T02:26:04.691Z,21.45
2023-12-07T02:28:31.601Z,22.02
2023-12-07T02:30:58.806Z,26.70
2023-12-07T02:33:25.938Z,22.90
2023-12-07T02:35:53.006Z,26.57
2023-12-07T02:38:22.604Z,24.90
2023-12-07T02:40:50.840Z,28.60
2023-12-07T02:43:18.614Z,34.75
2023-12-07T02:45:45.675Z,24.38
2023-12-07T02:48:12.634Z,24.07
2023-12-07T02:50:39.569Z,19.02
2023-12-07T02:53:06.500Z,23.65
2023-12-07T02:55:33.439Z,26.27
2023-12-07T02:58:00.646Z,24.67
2023-12-07T03:00:27.572Z,20.70
2023-12-07T03:02:54.378Z,27.67
2023-12-07T03:05:21.594Z,29.10
2023-12-07T03:07:48.658Z,23.90
2023-12-07T03:10:15.585Z,33.42
2023-12-07T03:12:42.433Z,25.47
2023-12-07T03:15:11.272Z,27.80
2023-12-07T03:17:38.140Z,30.77
2023-12-07T03:20:06.696Z,34.53
2023-12-07T03:22:33.663Z,27.10
2023-12-07T03:25:00.655Z,26.43
2023-12-07T03:27:29.478Z,35.05
2023-12-07T03:29:56.327Z,26.20
2023-12-07T03:32:23.769Z,25.63
2023-12-07T03:34:50.789Z,35.15
2023-12-07T03:37:17.841Z,24.60
2023-12-07T03:39:44.703Z,24.67
2023-12-07T03:42:48.607Z,22.75
2023-12-07T03:44:58.434Z,25.77
2023-12-07T03:47:25.713Z,26.20
2023-12-07T03:49:52.711Z,37.90
2023-12-07T03:52:19.676Z,28.45
2023-12-07T03:54:46.561Z,40.90
2023-12-07T03:57:13.441Z,30.45
2023-12-07T03:59:40.492Z,28.20
2023-12-07T04:02:07.526Z,30.93
2023-12-07T04:04:35.113Z,35.75
2023-12-07T04:07:02.012Z,36.63
2023-12-07T04:09:29.121Z,32.40
2023-12-07T04:11:55.996Z,31.77
2023-12-07T04:14:23.126Z,38.90
2023-12-07T04:16:49.984Z,36.53
2023-12-07T04:19:17.095Z,39.70
2023-12-07T04:21:44.125Z,38.95
2023-12-07T04:24:10.990Z,35.58
2023-12-07T04:26:37.872Z,42.47
2023-12-07T04:29:05.014Z,43.10
2023-12-07T04:31:31.914Z,45.20
2023-12-07T04:33:58.862Z,62.42
2023-12-07T04:36:25.779Z,90.97
2023-12-07T04:38:52.637Z,189.57
2023-12-07T04:41:19.522Z,169.70
2023-12-07T04:43:46.737Z,198.32
2023-12-07T04:46:15.405Z,333.92
2023-12-07T04:48:43.564Z,305.70
2023-12-07T04:51:10.452Z,239.17
2023-12-07T04:53:52.414Z,175.98
2023-12-07T04:56:33.137Z,189.13
2023-12-07T04:59:03.073Z,170.43
2023-12-07T05:01:29.975Z,308.45
2023-12-07T05:03:56.881Z,336.47
2023-12-07T05:06:37.122Z,451.60
2023-12-07T05:09:11.245Z,249.85
2023-12-07T05:11:38.933Z,225.43
2023-12-07T05:14:05.898Z,314.30
2023-12-07T05:16:33.806Z,328.70
2023-12-07T05:19:01.023Z,295.48
2023-12-07T05:21:27.977Z,483.67
2023-12-07T05:23:54.877Z,383.65
2023-12-07T05:26:22.414Z,280.13
2023-12-07T05:28:49.585Z,280.33
2023-12-07T05:31:19.992Z,486.45
2023-12-07T05:33:46.968Z,363.17
2023-12-07T05:36:14.416Z,292.45
2023-12-07T05:38:41.274Z,493.88
2023-12-07T05:41:08.148Z,347.87
2023-12-07T05:43:35.192Z,310.40
2023-12-07T05:46:02.198Z,288.08
2023-12-07T05:48:29.321Z,291.90
2023-12-07T05:50:56.703Z,270.83
2023-12-07T05:53:23.664Z,464.77
2023-12-07T05:55:50.738Z,316.75
2023-12-07T05:58:20.553Z,237.93
2023-12-07T06:00:48.360Z,333.38
2023-12-07T06:03:16.695Z,284.75
2023-12-07T06:05:46.396Z,320.97
2023-12-07T06:08:13.493Z,260.90
2023-12-07T06:10:40.389Z,200.57
2023-12-07T06:13:07.259Z,203.93
2023-12-07T06:15:34.743Z,215.95
2023-12-07T06:18:01.862Z,295.97
2023-12-07T06:20:28.815Z,293.70
2023-12-07T06:22:55.912Z,284.27
2023-12-07T06:25:23.314Z,206.52
2023-12-07T06:27:50.217Z,181.88
2023-12-07T06:30:17.374Z,391.90
2023-12-07T06:32:44.370Z,257.90
2023-12-07T06:35:13.617Z,321.13
2023-12-07T06:37:42.575Z,397.98
2023-12-07T06:40:12.685Z,265.42
2023-12-07T06:42:40.769Z,211.80
2023-12-07T06:45:11.969Z,340.30
2023-12-07T06:47:43.465Z,343.05
2023-12-07T06:50:11.311Z,308.38
2023-12-07T06:52:38.961Z,243.20
2023-12-07T06:55:06.804Z,246.23
2023-12-07T06:57:34.608Z,292.98
2023-12-07T07:00:02.684Z,402.38
2023-12-07T07:02:29.626Z,308.80
2023-12-07T07:04:56.565Z,320.83
2023-12-07T07:07:23.795Z,409.00
2023-12-07T07:09:50.791Z,210.77
2023-12-07T07:12:23.856Z,332.95
2023-12-07T07:14:50.902Z,232.23
2023-12-07T07:17:18.651Z,206.48
2023-12-07T07:19:45.526Z,314.93
2023-12-07T07:22:12.429Z,290.42
2023-12-07T07:24:39.353Z,245.40
2023-12-07T07:27:06.423Z,197.15
2023-12-07T07:29:33.674Z,264.42
2023-12-07T07:32:00.565Z,203.90
2023-12-07T07:34:27.595Z,222.88
2023-12-07T07:36:54.575Z,229.52
2023-12-07T07:39:21.599Z,254.07
2023-12-07T07:41:48.476Z,220.25
2023-12-07T07:44:17.552Z,177.53
2023-12-07T07:46:44.450Z,251.02
2023-12-07T07:49:11.494Z,96.05
2023-12-07T07:51:39.771Z,293.48
2023-12-07T07:54:06.730Z,182.98
2023-12-07T07:56:33.732Z,242.50
2023-12-07T07:59:01.782Z,193.65
2023-12-07T08:01:28.819Z,262.90
2023-12-07T08:03:55.854Z,289.45
2023-12-07T08:06:22.767Z,221.82
2023-12-07T08:08:50.888Z,206.07
2023-12-07T08:11:20.667Z,191.73
2023-12-07T08:13:47.588Z,225.60
2023-12-07T08:16:14.854Z,218.75
2023-12-07T08:18:41.914Z,231.68
2023-12-07T08:21:09.657Z,200.47
2023-12-07T08:23:36.874Z,233.93
2023-12-07T08:26:04.022Z,213.82
2023-12-07T08:28:30.998Z,110.82
2023-12-07T08:30:57.917Z,174.50
2023-12-07T08:33:24.947Z,193.80
2023-12-07T08:35:55.820Z,134.80
2023-12-07T08:38:23.775Z,168.07
2023-12-07T08:40:50.636Z,198.82
2023-12-07T08:43:17.687Z,168.48
2023-12-07T08:45:47.609Z,140.80
2023-12-07T08:48:14.534Z,195.73
2023-12-07T08:50:41.849Z,240.63
2023-12-07T08:53:08.760Z,189.23
2023-12-07T08:55:35.844Z,237.18
2023-12-07T08:58:05.458Z,127.43
2023-12-07T09:00:33.460Z,143.60
2023-12-07T09:03:00.446Z,130.57
2023-12-07T09:05:27.857Z,118.90
2023-12-07T09:07:55.036Z,147.30
2023-12-07T09:10:21.955Z,113.07
2023-12-07T09:12:49.005Z,157.60
2023-12-07T09:15:16.011Z,204.52
2023-12-07T09:17:43.150Z,141.43
2023-12-07T09:20:15.719Z,106.97
2023-12-07T09:22:47.568Z,144.47
2023-12-07T09:25:16.343Z,131.55
2023-12-07T09:27:43.271Z,155.07
2023-12-07T09:30:14.841Z,135.73
2023-12-07T09:32:44.752Z,87.88
2023-12-07T09:35:22.689Z,119.93
2023-12-07T09:37:50.834Z,88.03
2023-12-07T09:40:19.682Z,107.03
2023-12-07T09:42:47.885Z,147.43
2023-12-07T09:45:17.742Z,93.00
2023-12-07T09:47:49.189Z,109.33
2023-12-07T09:50:18.996Z,107.10
2023-12-07T09:52:50.270Z,109.88
2023-12-07T09:55:24.575Z,91.50
2023-12-07T09:57:51.937Z,53.67
2023-12-07T10:00:19.609Z,77.63
2023-12-07T10:02:47.692Z,106.30
2023-12-07T10:05:17.917Z,93.82
2023-12-07T10:07:50.676Z,63.33
2023-12-07T10:10:19.566Z,110.63
2023-12-07T10:12:54.121Z,96.47
2023-12-07T10:15:22.927Z,87.35
2023-12-07T10:18:01.290Z,73.68
2023-12-07T10:20:31.553Z,106.32
2023-12-07T10:23:09.992Z,84.20
2023-12-07T10:25:42.732Z,117.00
2023-12-07T10:28:12.697Z,137.93
2023-12-07T10:30:45.158Z,74.28
2023-12-07T10:33:14.511Z,89.97
2023-12-07T10:35:43.630Z,80.18
2023-12-07T10:38:11.790Z,112.73
2023-12-07T10:40:39.023Z,58.45
2023-12-07T10:43:08.084Z,63.40
2023-12-07T10:45:36.366Z,70.55
2023-12-07T10:48:08.831Z,69.57
2023-12-07T10:50:43.507Z,81.40
2023-12-07T10:53:13.216Z,113.45
2023-12-07T10:55:56.530Z,57.42
2023-12-07T10:58:26.774Z,64.65
2023-12-07T11:00:58.049Z,95.82
2023-12-07T11:03:25.806Z,84.80
2023-12-07T11:05:53.300Z,61.08
2023-12-07T11:08:29.472Z,45.53
2023-12-07T11:11:16.334Z,38.50
2023-12-07T11:13:53.414Z,48.63
2023-12-07T11:16:30.987Z,42.13
2023-12-07T11:18:59.216Z,57.50
2023-12-07T11:21:26.333Z,47.38
2023-12-07T11:23:55.221Z,50.90
2023-12-07T11:26:24.827Z,78.70
2023-12-07T11:28:52.099Z,46.53
2023-12-07T11:31:20.896Z,53.58
2023-12-07T11:33:49.088Z,44.40
2023-12-07T11:36:16.327Z,42.35
2023-12-07T11:39:02.179Z,42.08
2023-12-07T11:41:44.717Z,50.87
2023-12-07T11:44:11.958Z,47.97
2023-12-07T11:46:39.539Z,44.70
2023-12-07T11:49:20.992Z,42.75
2023-12-07T11:51:55.323Z,44.35
2023-12-07T11:54:23.990Z,33.60
2023-12-07T11:56:57.650Z,44.15
2023-12-07T11:59:33.619Z,44.10
2023-12-07T12:02:03.754Z,38.17
2023-12-07T12:04:31.521Z,49.05
2023-12-07T12:06:58.943Z,39.97
2023-12-07T12:09:33.069Z,45.88
2023-12-07T12:12:05.827Z,46.95
2023-12-07T12:14:33.350Z,31.13
2023-12-07T12:17:05.923Z,48.33
2023-12-07T12:19:40.698Z,46.93
2023-12-07T12:22:08.653Z,44.65
2023-12-07T12:24:41.110Z,46.38
2023-12-07T12:27:09.770Z,38.05
2023-12-07T12:29:38.178Z,50.25
2023-12-07T12:32:07.031Z,38.93
2023-12-07T12:34:35.685Z,42.70
2023-12-07T12:37:07.320Z,39.88
2023-12-07T12:39:35.320Z,42.78
2023-12-07T12:42:04.683Z,41.85
2023-12-07T12:44:38.005Z,40.10
2023-12-07T12:47:10.873Z,37.63
2023-12-07T12:49:41.511Z,42.33
2023-12-07T12:52:13.193Z,39.70
2023-12-07T12:54:43.442Z,35.85
2023-12-07T12:57:11.399Z,42.80
2023-12-07T12:59:38.570Z,35.72
2023-12-07T13:02:05.994Z,46.45
2023-12-07T13:04:40.959Z,35.92
2023-12-07T13:07:09.866Z,39.40
2023-12-07T13:09:36.864Z,36.13
2023-12-07T13:12:05.896Z,41.28
2023-12-07T13:14:39.547Z,36.25
2023-12-07T13:17:10.964Z,39.55
2023-12-07T13:19:38.138Z,39.50
2023-12-07T13:22:06.031Z,42.00
2023-12-07T13:24:33.066Z,42.40
2023-12-07T13:27:01.582Z,44.17
2023-12-07T13:29:35.477Z,41.33
2023-12-07T13:32:04.615Z,46.70
2023-12-07T13:34:31.760Z,37.17
2023-12-07T13:36:58.780Z,34.75
2023-12-07T13:39:30.659Z,38.40
2023-12-07T13:42:00.777Z,38.80
2023-12-07T13:44:29.555Z,38.85
2023-12-07T13:46:58.464Z,38.93
2023-12-07T13:49:32.770Z,36.88
2023-12-07T13:52:06.434Z,38.20
2023-12-07T13:54:50.362Z,41.53
2023-12-07T13:57:26.304Z,31.73
2023-12-07T13:59:56.921Z,41.53
2023-12-07T14:02:24.209Z,39.75
2023-12-07T14:04:51.872Z,45.05
2023-12-07T14:07:21.865Z,41.33
2023-12-07T14:09:57.468Z,39.50
2023-12-07T14:12:27.179Z,37.50
2023-12-07T14:14:56.594Z,38.58
2023-12-07T14:17:32.415Z,35.10
2023-12-07T14:20:21.383Z,43.45
2023-12-07T14:23:05.521Z,40.53
2023-12-07T14:25:35.271Z,36.87
2023-12-07T14:28:02.167Z,39.28
2023-12-07T14:30:44.702Z,46.03
2023-12-07T14:33:11.693Z,51.78
2023-12-07T14:35:38.772Z,44.95
2023-12-07T14:38:05.824Z,45.50
2023-12-07T14:40:32.728Z,43.67
2023-12-07T14:42:59.668Z,48.67
2023-12-07T14:45:29.365Z,47.97
2023-12-07T14:47:56.660Z,45.38
2023-12-07T14:50:23.739Z,53.30
2023-12-07T14:52:50.735Z,45.53
2023-12-07T14:55:19.896Z,55.08
2023-12-07T14:57:49.238Z,56.35
2023-12-07T15:00:17.353Z,48.05
2023-12-07T15:03:04.076Z,51.13
2023-12-07T15:05:37.829Z,52.47
2023-12-07T15:08:05.734Z,46.50
2023-12-07T15:10:37.081Z,54.20
2023-12-07T15:13:10.335Z,60.13
2023-12-07T15:15:37.781Z,52.20
2023-12-07T15:18:05.243Z,51.55
2023-12-07T15:20:32.397Z,52.92
2023-12-07T15:22:59.520Z,50.97
2023-12-07T15:25:26.430Z,59.38
2023-12-07T15:27:53.349Z,54.67
2023-12-07T15:30:24.286Z,50.63
2023-12-07T15:32:51.890Z,49.67
2023-12-07T15:35:19.100Z,58.80
2023-12-07T15:37:46.270Z,45.33
2023-12-07T15:40:13.230Z,49.70
2023-12-07T15:42:40.996Z,48.90
2023-12-07T15:45:09.084Z,47.10
2023-12-07T15:47:38.964Z,57.45
2023-12-07T15:50:09.419Z,42.40
2023-12-07T15:52:37.668Z,41.13
2023-12-07T15:55:04.965Z,49.50
2023-12-07T15:57:32.095Z,53.60
2023-12-07T16:00:02.938Z,48.75
2023-12-07T16:02:39.577Z,48.92
2023-12-07T16:05:11.751Z,52.03
2023-12-07T16:07:43.196Z,41.70
2023-12-07T16:10:33.887Z,49.95
2023-12-07T16:13:07.248Z,48.70
2023-12-07T16:15:36.342Z,44.28
2023-12-07T16:18:06.479Z,45.27
2023-12-07T16:20:42.933Z,40.33
2023-12-07T16:23:23.717Z,48.00
2023-12-07T16:26:01.068Z,42.83
2023-12-07T17:44:15.840Z,38.33
2023-12-07T17:46:42.819Z,29.95
2023-12-07T17:49:10.223Z,36.80
2023-12-07T17:51:38.086Z,34.80
2023-12-07T17:54:05.357Z,35.60
2023-12-07T17:56:32.263Z,31.92
2023-12-07T17:59:00.077Z,39.78
2023-12-07T18:01:27.175Z,32.95
2023-12-07T18:03:54.992Z,29.23
2023-12-07T18:06:23.036Z,35.45
2023-12-07T18:08:50.185Z,31.23
2023-12-07T18:11:21.922Z,31.52
2023-12-07T18:13:50.137Z,29.65
2023-12-07T18:16:20.419Z,29.60
2023-12-07T18:18:48.295Z,30.30
2023-12-07T18:21:17.538Z,32.42
2023-12-07T18:23:45.195Z,30.45
2023-12-07T18:26:13.055Z,32.40
2023-12-07T18:28:40.271Z,27.77
2023-12-07T18:31:07.221Z,30.60
2023-12-07T18:33:34.377Z,32.72
2023-12-07T18:36:01.804Z,32.17
2023-12-07T18:38:28.901Z,32.28
2023-12-07T18:40:56.783Z,27.57
2023-12-07T18:43:25.717Z,29.23
2023-12-07T18:45:55.942Z,23.33
2023-12-07T18:48:23.132Z,22.55
2023-12-07T18:50:50.344Z,24.10
2023-12-07T18:53:17.719Z,25.97
2023-12-07T18:55:47.659Z,23.48
2023-12-07T18:58:14.654Z,24.85
2023-12-07T19:00:43.285Z,24.50
2023-12-07T19:03:14.882Z,25.58
2023-12-07T19:05:56.691Z,28.27
2023-12-07T19:08:30.430Z,25.92
2023-12-07T19:11:01.004Z,28.77
2023-12-07T19:13:28.498Z,24.80
2023-12-07T19:15:55.759Z,28.73
2023-12-07T19:18:23.236Z,31.17
2023-12-07T19:20:50.549Z,21.92
2023-12-07T19:23:17.670Z,21.88
2023-12-07T19:25:44.885Z,21.98
2023-12-07T19:28:11.806Z,24.55
2023-12-07T19:30:38.838Z,31.73
2023-12-07T19:33:06.316Z,23.67
2023-12-07T19:35:33.657Z,26.77
2023-12-07T19:38:00.858Z,23.05
2023-12-07T19:40:27.891Z,26.70
2023-12-07T19:42:54.956Z,21.40
2023-12-07T19:45:22.062Z,26.80
2023-12-07T19:47:49.140Z,23.00
2023-12-07T19:50:16.464Z,24.63
2023-12-07T19:52:43.628Z,22.38
2023-12-07T19:55:10.831Z,17.30
2023-12-07T19:57:43.561Z,23.80
2023-12-07T20:00:12.140Z,19.55
2023-12-07T20:02:39.665Z,27.35
2023-12-07T20:05:07.743Z,22.42
2023-12-07T20:07:35.290Z,25.70
2023-12-07T20:10:02.681Z,21.23
2023-12-07T20:12:35.206Z,20.02
2023-12-07T20:15:04.628Z,23.17
2023-12-07T20:17:31.941Z,19.70
2023-12-07T20:19:59.773Z,20.13
2023-12-07T20:22:26.892Z,23.70
2023-12-07T20:24:54.213Z,20.95
2023-12-07T20:27:23.142Z,18.60
2023-12-07T20:29:50.768Z,18.40
2023-12-07T20:32:17.978Z,19.53
2023-12-07T20:34:45.281Z,21.10
2023-12-07T20:37:14.814Z,19.02
2023-12-07T20:39:41.954Z,21.58
2023-12-07T20:42:11.081Z,22.25
2023-12-07T20:44:38.153Z,18.90
2023-12-07T20:47:05.166Z,23.80
2023-12-07T20:49:32.241Z,19.90
2023-12-07T20:52:00.693Z,20.13
2023-12-07T20:54:29.456Z,17.63
2023-12-07T20:56:57.261Z,20.73
2023-12-07T20:59:24.456Z,21.83
2023-12-07T21:01:51.994Z,17.48
2023-12-07T21:04:20.525Z,19.75
2023-12-07T21:06:47.579Z,23.30
2023-12-07T21:09:14.976Z,18.47
2023-12-07T21:11:43.223Z,24.77
2023-12-07T21:14:10.934Z,19.15
2023-12-07T21:16:38.586Z,15.93
2023-12-07T21:19:06.127Z,16.75
2023-12-07T21:21:34.296Z,21.50
2023-12-07T21:24:01.651Z,20.20
2023-12-07T21:26:28.884Z,23.10
2023-12-07T21:28:55.943Z,17.15
2023-12-07T21:31:23.668Z,23.52
2023-12-07T21:33:52.221Z,25.50
2023-12-07T21:36:19.978Z,20.08
2023-12-07T21:38:47.612Z,18.38
2023-12-07T21:41:15.486Z,18.35
2023-12-07T21:43:43.181Z,17.95
2023-12-07T21:46:11.576Z,20.63
2023-12-07T21:48:38.791Z,17.55
2023-12-07T21:51:07.005Z,17.73
2023-12-07T21:53:34.227Z,20.98
2023-12-07T21:56:04.010Z,18.17
2023-12-07T21:58:31.026Z,21.27
2023-12-07T22:00:58.152Z,19.02
2023-12-07T22:03:25.444Z,19.85
2023-12-07T22:05:52.548Z,21.08
2023-12-07T22:08:20.237Z,18.00
2023-12-07T22:10:47.509Z,18.50
2023-12-07T22:13:14.975Z,19.63
2023-12-07T22:15:42.121Z,19.30
2023-12-07T22:18:09.308Z,19.40
2023-12-07T22:20:37.099Z,20.15
2023-12-07T22:23:04.271Z,21.10
2023-12-07T22:25:31.620Z,21.67
2023-12-07T22:27:59.864Z,17.92
2023-12-07T22:30:26.851Z,19.60
2023-12-07T22:32:54.004Z,22.60
2023-12-07T22:35:21.650Z,20.70
2023-12-07T22:37:49.062Z,20.52
2023-12-07T22:40:16.372Z,26.75
2023-12-07T22:42:43.311Z,16.20
2023-12-07T22:45:10.791Z,25.52
2023-12-07T22:47:38.142Z,25.43
2023-12-07T22:50:06.435Z,25.10
2023-12-07T22:52:33.641Z,19.38
2023-12-07T22:55:00.981Z,23.08
2023-12-07T22:57:28.341Z,25.23
2023-12-07T22:59:55.470Z,22.20
2023-12-07T23:02:22.503Z,20.95
2023-12-07T23:04:49.621Z,24.02
2023-12-07T23:07:16.688Z,23.42
2023-12-07T23:09:43.705Z,23.52
2023-12-07T23:12:11.053Z,24.60
2023-12-07T23:14:38.326Z,27.15
2023-12-07T23:17:05.479Z,23.90
2023-12-07T23:19:32.614Z,22.73
2023-12-07T23:21:59.806Z,23.88
2023-12-07T23:24:26.973Z,20.50
2023-12-07T23:26:55.747Z,21.23
2023-12-07T23:29:22.924Z,24.45
2023-12-07T23:31:49.885Z,21.35
2023-12-07T23:34:16.921Z,22.80
2023-12-07T23:36:43.910Z,25.50
2023-12-07T23:39:12.153Z,22.10
2023-12-07T23:41:39.278Z,22.85
2023-12-07T23:44:06.473Z,24.55
2023-12-07T23:46:33.524Z,26.80
2023-12-07T23:49:00.911Z,27.83
2023-12-07T23:51:30.422Z,24.40
2023-12-07T23:53:57.829Z,25.77
2023-12-07T23:56:24.982Z,29.63
2023-12-07T23:58:52.113Z,24.88
